createdAt,value
2022-12-06T00:00:32.978Z,20
2022-12-06T00:03:04.198Z,23
2022-12-06T00:05:35.588Z,23
2022-12-06T00:08:06.452Z,25
2022-12-06T00:10:37.677Z,20
2022-12-06T00:13:08.313Z,27
2022-12-06T00:15:39.818Z,23
2022-12-06T00:18:10.731Z,19
2022-12-06T00:20:41.453Z,28
2022-12-06T00:23:11.922Z,23
2022-12-06T00:25:42.942Z,25
2022-12-06T00:28:14.145Z,22
2022-12-06T00:30:44.761Z,30
2022-12-06T00:33:15.879Z,29
2022-12-06T00:35:46.303Z,32
2022-12-06T00:38:17.153Z,28
2022-12-06T00:40:47.919Z,27
2022-12-06T00:43:19.540Z,24
2022-12-06T00:45:50.574Z,21
2022-12-06T00:48:21.499Z,29
2022-12-06T00:50:52.221Z,24
2022-12-06T00:53:23.407Z,23
2022-12-06T00:55:54.070Z,24
2022-12-06T00:58:24.815Z,23
2022-12-06T01:00:56.181Z,27
2022-12-06T01:03:30.831Z,20
2022-12-06T01:05:58.640Z,23
2022-12-06T01:08:29.659Z,24
2022-12-06T01:11:01.148Z,23
2022-12-06T01:13:31.947Z,24
2022-12-06T01:16:03.783Z,22
2022-12-06T01:18:35.538Z,20
2022-12-06T01:21:07.044Z,20
2022-12-06T01:23:38.632Z,24
2022-12-06T01:26:09.700Z,24
2022-12-06T01:28:40.685Z,20
2022-12-06T01:31:12.087Z,21
2022-12-06T01:33:43.558Z,20
2022-12-06T01:36:14.962Z,20
2022-12-06T01:38:46.144Z,20
2022-12-06T01:41:17.205Z,21
2022-12-06T01:43:48.185Z,24
2022-12-06T01:46:19.392Z,20
2022-12-06T01:48:49.902Z,21
2022-12-06T01:51:20.795Z,20
2022-12-06T01:53:51.934Z,24
2022-12-06T01:56:22.959Z,24
2022-12-06T01:58:53.574Z,29
2022-12-06T02:01:25.074Z,24
2022-12-06T02:03:56.079Z,24
2022-12-06T02:06:26.938Z,25
2022-12-06T02:08:57.884Z,24
2022-12-06T02:11:33.601Z,28
2022-12-06T02:13:59.630Z,29
2022-12-06T02:16:30.410Z,22
2022-12-06T02:19:01.493Z,25
2022-12-06T02:21:33.270Z,24
2022-12-06T02:24:04.338Z,20
2022-12-06T02:26:36.098Z,28
2022-12-06T02:29:06.787Z,24
2022-12-06T02:31:37.793Z,25
2022-12-06T02:34:09.342Z,24
2022-12-06T02:36:40.259Z,24
2022-12-06T02:39:11.340Z,21
2022-12-06T02:41:41.289Z,29
2022-12-06T02:44:12.945Z,20
2022-12-06T02:46:44.602Z,22
2022-12-06T02:49:16.242Z,24
2022-12-06T02:51:47.088Z,31
2022-12-06T02:54:18.558Z,28
2022-12-06T02:56:49.411Z,25
2022-12-06T02:59:20.285Z,20
2022-12-06T03:01:51.384Z,27
2022-12-06T03:04:22.313Z,24
2022-12-06T03:06:53.372Z,27
2022-12-06T03:09:24.451Z,25
2022-12-06T03:11:55.347Z,24
2022-12-06T03:14:25.808Z,24
2022-12-06T03:16:56.718Z,21
2022-12-06T03:19:27.753Z,28
2022-12-06T03:21:59.028Z,26
2022-12-06T03:24:29.411Z,29
2022-12-06T03:27:00.242Z,28
2022-12-06T03:29:31.421Z,27
2022-12-06T03:32:00.647Z,24
2022-12-06T03:34:31.319Z,28
2022-12-06T03:37:02.278Z,32
2022-12-06T03:39:32.999Z,24
2022-12-06T03:42:03.979Z,28
2022-12-06T03:44:34.809Z,31
2022-12-06T03:47:05.619Z,25
2022-12-06T03:49:36.714Z,28
2022-12-06T03:52:07.739Z,34
2022-12-06T03:54:38.582Z,30
2022-12-06T03:57:09.681Z,25
2022-12-06T03:59:40.842Z,24
2022-12-06T04:02:12.034Z,23
2022-12-06T04:04:42.571Z,28
2022-12-06T04:07:13.822Z,22
2022-12-06T04:09:45.052Z,28
2022-12-06T04:12:16.444Z,23
2022-12-06T04:14:47.466Z,23
2022-12-06T04:17:19.655Z,33
2022-12-06T04:19:52.263Z,33
2022-12-06T04:22:21.880Z,26
2022-12-06T04:24:53.219Z,32
2022-12-06T04:27:24.943Z,28
2022-12-06T04:29:55.940Z,34
2022-12-06T04:32:26.882Z,28
2022-12-06T04:34:58.707Z,30
2022-12-06T04:37:30.239Z,25
2022-12-06T04:40:01.527Z,24
2022-12-06T04:42:32.783Z,31
2022-12-06T04:45:04.286Z,25
2022-12-06T04:47:35.426Z,33
2022-12-06T04:50:06.867Z,26
2022-12-06T04:52:38.177Z,28
2022-12-06T04:55:09.460Z,28
2022-12-06T04:57:40.792Z,25
2022-12-06T05:00:11.461Z,27
2022-12-06T05:02:42.224Z,36
2022-12-06T05:05:13.765Z,27
2022-12-06T05:07:44.917Z,28
2022-12-06T05:10:15.736Z,36
2022-12-06T05:12:46.648Z,35
2022-12-06T05:15:17.635Z,34
2022-12-06T05:17:49.373Z,35
2022-12-06T05:20:20.131Z,28
2022-12-06T05:22:51.764Z,44
2022-12-06T05:25:23.006Z,28
2022-12-06T05:27:54.258Z,39
2022-12-06T05:30:25.402Z,35
2022-12-06T05:32:57.102Z,40
2022-12-06T05:35:33.593Z,40
2022-12-06T05:38:04.454Z,32
2022-12-06T05:40:35.131Z,37
2022-12-06T05:43:05.888Z,32
2022-12-06T05:45:37.013Z,36
2022-12-06T05:48:07.288Z,33
2022-12-06T05:50:38.215Z,35
2022-12-06T05:53:09.394Z,32
2022-12-06T05:55:39.910Z,28
2022-12-06T05:58:10.938Z,36
2022-12-06T06:00:41.603Z,36
2022-12-06T06:03:13.550Z,40
2022-12-06T06:05:44.079Z,28
2022-12-06T06:08:14.539Z,35
2022-12-06T06:10:45.676Z,32
2022-12-06T06:13:16.927Z,34
2022-12-06T06:15:47.872Z,36
2022-12-06T06:18:19.323Z,41
2022-12-06T06:20:49.633Z,33
2022-12-06T06:23:20.799Z,35
2022-12-06T06:25:52.908Z,33
2022-12-06T06:28:23.621Z,35
2022-12-06T06:30:54.454Z,36
2022-12-06T06:33:25.489Z,38
2022-12-06T06:35:56.100Z,32
2022-12-06T06:38:26.732Z,33
2022-12-06T06:40:57.555Z,38
2022-12-06T06:43:28.792Z,37
2022-12-06T06:45:59.689Z,36
2022-12-06T06:48:30.623Z,36
2022-12-06T06:51:01.367Z,32
2022-12-06T06:53:32.168Z,33
2022-12-06T06:56:02.389Z,36
2022-12-06T06:58:32.738Z,36
2022-12-06T07:01:03.066Z,35
2022-12-06T07:03:33.770Z,34
2022-12-06T07:06:04.434Z,36
2022-12-06T07:08:34.826Z,29
2022-12-06T07:11:04.217Z,32
2022-12-06T07:13:35.611Z,36
2022-12-06T07:16:05.917Z,36
2022-12-06T07:18:36.655Z,35
2022-12-06T07:21:07.538Z,36
2022-12-06T07:23:38.628Z,36
2022-12-06T07:26:09.106Z,44
2022-12-06T07:28:40.129Z,36
2022-12-06T07:31:10.717Z,45
2022-12-06T07:33:41.817Z,40
2022-12-06T07:36:14.055Z,44
2022-12-06T07:38:44.700Z,53
2022-12-06T07:41:15.797Z,56
2022-12-06T07:43:46.468Z,65
2022-12-06T07:46:17.224Z,57
2022-12-06T07:48:47.731Z,68
2022-12-06T07:51:18.537Z,44
2022-12-06T07:53:49.951Z,44
2022-12-06T07:56:20.733Z,52
2022-12-06T07:58:52.104Z,40
2022-12-06T08:01:22.566Z,44
2022-12-06T08:03:53.352Z,48
2022-12-06T08:06:24.069Z,48
2022-12-06T08:08:54.308Z,36
2022-12-06T08:11:25.018Z,40
2022-12-06T08:13:55.710Z,115
2022-12-06T08:16:26.679Z,61
2022-12-06T08:18:57.284Z,73
2022-12-06T08:21:28.781Z,55
2022-12-06T08:23:59.809Z,49
2022-12-06T08:26:30.699Z,52
2022-12-06T08:29:01.504Z,69
2022-12-06T08:31:31.976Z,43
2022-12-06T08:34:02.531Z,44
2022-12-06T08:36:32.558Z,56
2022-12-06T08:39:03.338Z,37
2022-12-06T08:41:33.715Z,36
2022-12-06T08:44:04.351Z,36
2022-12-06T08:46:35.557Z,44
2022-12-06T08:49:05.932Z,36
2022-12-06T08:51:36.737Z,36
2022-12-06T08:54:07.652Z,44
2022-12-06T08:56:38.277Z,38
2022-12-06T08:59:07.284Z,33
2022-12-06T09:01:38.533Z,51
2022-12-06T09:04:08.434Z,48
2022-12-06T09:06:39.044Z,36
2022-12-06T09:09:10.238Z,44
2022-12-06T09:11:41.147Z,40
2022-12-06T09:14:15.271Z,40
2022-12-06T09:16:43.591Z,39
2022-12-06T09:19:14.504Z,48
2022-12-06T09:21:45.133Z,44
2022-12-06T09:24:15.793Z,40
2022-12-06T09:26:46.859Z,38
2022-12-06T09:29:16.935Z,36
2022-12-06T09:31:47.043Z,35
2022-12-06T09:34:17.483Z,63
2022-12-06T09:36:48.308Z,71
2022-12-06T09:39:19.389Z,40
2022-12-06T09:41:50.346Z,41
2022-12-06T09:44:21.488Z,36
2022-12-06T09:46:52.561Z,43
2022-12-06T09:49:23.492Z,30
2022-12-06T09:51:54.418Z,41
2022-12-06T09:54:26.252Z,32
2022-12-06T09:56:56.800Z,40
2022-12-06T09:59:27.238Z,36
2022-12-06T10:01:57.972Z,36
2022-12-06T10:04:28.597Z,32
2022-12-06T10:06:59.360Z,39
2022-12-06T10:09:30.101Z,32
2022-12-06T10:12:01.421Z,36
2022-12-06T10:14:32.278Z,48
2022-12-06T10:17:01.427Z,32
2022-12-06T10:19:30.662Z,40
2022-12-06T10:22:01.210Z,38
2022-12-06T10:24:31.798Z,39
2022-12-06T10:27:03.374Z,38
2022-12-06T10:29:34.429Z,37
2022-12-06T10:32:04.653Z,40
2022-12-06T10:34:35.796Z,40
2022-12-06T10:37:06.716Z,44
2022-12-06T10:39:37.180Z,44
2022-12-06T10:42:07.862Z,41
2022-12-06T10:44:38.973Z,36
2022-12-06T10:47:10.115Z,41
2022-12-06T10:49:41.113Z,39
2022-12-06T10:52:11.590Z,36
2022-12-06T10:54:42.051Z,44
2022-12-06T10:57:12.690Z,56
2022-12-06T10:59:43.731Z,42
2022-12-06T11:02:14.962Z,44
2022-12-06T11:04:46.088Z,43
2022-12-06T11:07:16.455Z,37
2022-12-06T11:09:47.715Z,39
2022-12-06T11:12:18.480Z,42
2022-12-06T11:14:49.424Z,48
2022-12-06T11:17:20.489Z,44
2022-12-06T11:19:51.425Z,40
2022-12-06T11:22:21.834Z,40
2022-12-06T11:24:52.349Z,46
2022-12-06T11:27:22.916Z,44
2022-12-06T11:29:53.485Z,40
2022-12-06T11:32:24.015Z,44
2022-12-06T11:34:55.588Z,40
2022-12-06T11:37:26.440Z,42
2022-12-06T11:39:57.282Z,44
2022-12-06T11:42:27.634Z,204
2022-12-06T11:44:59.139Z,44
2022-12-06T11:47:29.979Z,48
2022-12-06T11:50:06.229Z,44
2022-12-06T11:52:31.494Z,40
2022-12-06T11:55:03.331Z,43
2022-12-06T11:57:33.854Z,41
2022-12-06T12:00:05.483Z,44
2022-12-06T12:02:36.484Z,48
2022-12-06T12:05:07.714Z,47
2022-12-06T12:07:38.710Z,48
2022-12-06T12:10:09.559Z,51
2022-12-06T12:12:40.089Z,54
2022-12-06T12:15:10.924Z,56
2022-12-06T12:17:41.427Z,51
2022-12-06T12:20:12.350Z,52
2022-12-06T12:22:42.592Z,45
2022-12-06T12:25:21.407Z,52
2022-12-06T12:27:44.902Z,56
2022-12-06T12:30:16.358Z,48
2022-12-06T12:32:46.957Z,104
2022-12-06T12:35:18.209Z,49
2022-12-06T12:37:49.127Z,54
2022-12-06T12:40:20.710Z,51
2022-12-06T12:42:51.496Z,48
2022-12-06T12:45:22.696Z,52
2022-12-06T12:47:54.019Z,53
2022-12-06T12:50:25.262Z,55
2022-12-06T12:52:55.648Z,53
2022-12-06T12:55:26.952Z,52
2022-12-06T12:57:57.621Z,52
2022-12-06T13:00:29.615Z,52
2022-12-06T13:03:01.382Z,56
2022-12-06T13:05:34.195Z,52
2022-12-06T13:08:02.986Z,56
2022-12-06T13:10:34.480Z,52
2022-12-06T13:13:05.470Z,57
2022-12-06T13:15:36.269Z,55
2022-12-06T13:18:07.119Z,70
2022-12-06T13:20:40.041Z,57
2022-12-06T13:23:10.740Z,60
2022-12-06T13:25:41.535Z,56
2022-12-06T13:28:12.272Z,56
2022-12-06T13:30:43.949Z,52
2022-12-06T13:33:19.328Z,53
2022-12-06T13:35:46.218Z,56
2022-12-06T13:38:21.301Z,52
2022-12-06T13:40:48.703Z,57
2022-12-06T13:43:19.457Z,52
2022-12-06T13:45:51.375Z,53
2022-12-06T13:48:22.472Z,51
2022-12-06T13:50:53.450Z,52
2022-12-06T13:53:24.799Z,52
2022-12-06T13:55:59.550Z,52
2022-12-06T13:58:27.515Z,56
2022-12-06T14:01:00.350Z,58
2022-12-06T14:03:31.654Z,56
2022-12-06T14:06:05.057Z,56
2022-12-06T14:08:33.913Z,57
2022-12-06T14:11:05.068Z,58
2022-12-06T14:13:36.411Z,57
2022-12-06T14:16:07.729Z,56
2022-12-06T14:18:39.220Z,60
2022-12-06T14:21:10.734Z,60
2022-12-06T14:23:43.682Z,58
2022-12-06T14:26:13.938Z,56
2022-12-06T14:28:45.365Z,58
2022-12-06T14:31:16.750Z,60
2022-12-06T14:33:47.913Z,56
2022-12-06T14:36:19.020Z,60
2022-12-06T14:38:50.707Z,57
2022-12-06T14:41:22.134Z,56
2022-12-06T14:43:53.353Z,57
2022-12-06T14:46:24.806Z,54
2022-12-06T14:48:55.805Z,60
2022-12-06T14:51:27.085Z,66
2022-12-06T14:53:58.774Z,60
2022-12-06T14:56:30.726Z,60
2022-12-06T14:59:02.125Z,56
2022-12-06T15:01:33.195Z,60
2022-12-06T15:04:04.474Z,58
2022-12-06T15:06:35.766Z,59
2022-12-06T15:09:06.794Z,57
2022-12-06T15:11:38.119Z,52
2022-12-06T15:14:09.405Z,52
2022-12-06T15:16:40.678Z,55
2022-12-06T15:19:11.967Z,59
2022-12-06T15:21:43.619Z,60
2022-12-06T15:24:15.325Z,81
2022-12-06T15:26:46.365Z,76
2022-12-06T15:29:17.645Z,67
2022-12-06T15:31:48.797Z,64
2022-12-06T15:34:20.077Z,59
2022-12-06T15:37:03.870Z,60
2022-12-06T15:39:23.001Z,65
2022-12-06T15:41:54.342Z,59
2022-12-06T15:44:25.630Z,60
2022-12-06T15:46:57.032Z,56
2022-12-06T15:49:28.883Z,61
2022-12-06T15:52:00.304Z,76
2022-12-06T15:54:31.762Z,89
2022-12-06T15:57:03.074Z,73
2022-12-06T15:59:34.078Z,88
2022-12-06T16:02:04.011Z,70
2022-12-06T16:04:35.334Z,65
2022-12-06T16:07:06.485Z,144
2022-12-06T16:09:37.928Z,95
2022-12-06T16:12:09.862Z,64
2022-12-06T16:14:41.500Z,65
2022-12-06T16:17:12.829Z,64
2022-12-06T16:19:44.202Z,70
2022-12-06T16:22:15.781Z,89
2022-12-06T16:24:52.445Z,92
2022-12-06T16:27:18.759Z,79
2022-12-06T16:29:50.264Z,96
2022-12-06T16:32:21.970Z,142
2022-12-06T16:34:53.583Z,92
2022-12-06T16:37:25.136Z,76
2022-12-06T16:39:56.698Z,101
2022-12-06T16:42:28.788Z,72
2022-12-06T16:45:00.446Z,72
2022-12-06T16:47:31.609Z,68
2022-12-06T16:50:02.945Z,89
2022-12-06T16:52:34.720Z,64
2022-12-06T16:55:06.538Z,60
2022-12-06T16:57:37.523Z,56
2022-12-06T17:00:08.833Z,64
2022-12-06T17:02:39.914Z,66
2022-12-06T17:05:10.948Z,73
2022-12-06T17:07:42.142Z,80
2022-12-06T17:10:13.726Z,81
2022-12-06T17:12:45.060Z,75
2022-12-06T17:15:16.216Z,64
2022-12-06T17:17:47.482Z,73
2022-12-06T17:20:17.794Z,80
2022-12-06T17:22:49.540Z,78
2022-12-06T17:25:20.760Z,76
2022-12-06T17:27:51.882Z,78
2022-12-06T17:30:22.924Z,80
2022-12-06T17:32:55.249Z,96
2022-12-06T17:35:26.415Z,111
2022-12-06T17:37:57.649Z,103
2022-12-06T17:40:29.919Z,83
2022-12-06T17:43:01.601Z,83
2022-12-06T17:45:36.939Z,89
2022-12-06T17:48:07.970Z,96
2022-12-06T17:50:39.848Z,98
2022-12-06T17:53:10.774Z,76
2022-12-06T17:55:45.040Z,70
2022-12-06T17:58:17.173Z,68
2022-12-06T18:00:48.473Z,64
2022-12-06T18:03:19.959Z,64
2022-12-06T18:05:51.610Z,68
2022-12-06T18:08:23.010Z,76
2022-12-06T18:10:54.173Z,71
2022-12-06T18:13:25.389Z,79
2022-12-06T18:15:55.879Z,84
2022-12-06T18:18:27.255Z,100
2022-12-06T18:20:59.312Z,101
2022-12-06T18:23:30.397Z,101
2022-12-06T18:26:02.385Z,104
2022-12-06T18:28:31.737Z,106
2022-12-06T18:31:03.994Z,98
2022-12-06T18:33:37.225Z,98
2022-12-06T18:36:08.753Z,83
2022-12-06T18:38:41.246Z,84
2022-12-06T18:41:16.993Z,91
2022-12-06T18:43:49.062Z,105
2022-12-06T18:46:19.659Z,116
2022-12-06T18:48:51.855Z,113
2022-12-06T18:51:23.495Z,96
2022-12-06T18:53:55.144Z,90
2022-12-06T18:56:27.390Z,89
2022-12-06T18:58:57.242Z,88
2022-12-06T19:01:30.484Z,88
2022-12-06T19:04:00.052Z,98
2022-12-06T19:06:32.347Z,98
2022-12-06T19:09:04.055Z,99
2022-12-06T19:11:35.503Z,104
2022-12-06T19:14:07.653Z,89
2022-12-06T19:16:38.961Z,93
2022-12-06T19:19:15.732Z,99
2022-12-06T19:21:41.683Z,101
2022-12-06T19:24:14.570Z,107
2022-12-06T19:26:49.034Z,105
2022-12-06T19:29:20.330Z,95
2022-12-06T19:31:52.242Z,94
2022-12-06T19:34:23.786Z,73
2022-12-06T19:36:56.182Z,86
2022-12-06T19:39:27.383Z,78
2022-12-06T19:42:02.072Z,73
2022-12-06T19:44:33.947Z,86
2022-12-06T19:47:05.416Z,82
2022-12-06T19:49:36.702Z,78
2022-12-06T19:52:07.910Z,90
2022-12-06T19:54:39.127Z,86
2022-12-06T19:57:11.547Z,92
2022-12-06T19:59:45.972Z,92
2022-12-06T20:02:17.497Z,107
2022-12-06T20:04:48.230Z,112
2022-12-06T20:07:20.631Z,111
2022-12-06T20:09:51.995Z,102
2022-12-06T20:12:24.422Z,126
2022-12-06T20:14:56.012Z,123
2022-12-06T20:17:26.962Z,119
2022-12-06T20:19:59.212Z,117
2022-12-06T20:22:30.415Z,115
2022-12-06T20:25:02.189Z,115
2022-12-06T20:27:33.931Z,132
2022-12-06T20:30:05.223Z,116
2022-12-06T20:32:36.415Z,134
2022-12-06T20:35:07.612Z,125
2022-12-06T20:37:39.749Z,118
2022-12-06T20:40:10.903Z,114
2022-12-06T20:42:42.262Z,117
2022-12-06T20:45:14.038Z,100
2022-12-06T20:47:45.507Z,102
2022-12-06T20:50:17.200Z,92
2022-12-06T20:52:49.785Z,106
2022-12-06T20:55:22.278Z,102
2022-12-06T20:57:53.497Z,107
2022-12-06T21:00:25.768Z,108
2022-12-06T21:02:59.048Z,108
2022-12-06T21:05:30.689Z,115
2022-12-06T21:08:01.942Z,115
2022-12-06T21:10:34.695Z,111
2022-12-06T21:13:06.374Z,111
2022-12-06T21:15:37.089Z,128
2022-12-06T21:18:08.246Z,110
2022-12-06T21:20:39.352Z,117
2022-12-06T21:23:10.724Z,113
2022-12-06T21:25:42.983Z,108
2022-12-06T21:28:15.131Z,106
2022-12-06T21:30:46.417Z,119
2022-12-06T21:33:18.029Z,117
2022-12-06T21:35:49.925Z,148
2022-12-06T21:38:21.596Z,115
2022-12-06T21:40:56.449Z,124
2022-12-06T21:43:26.852Z,123
2022-12-06T21:45:59.173Z,120
2022-12-06T21:48:30.629Z,127
2022-12-06T21:51:02.404Z,117
2022-12-06T21:53:33.513Z,119
2022-12-06T21:56:04.797Z,110
2022-12-06T21:58:37.360Z,119
2022-12-06T22:01:08.765Z,112
2022-12-06T22:03:39.950Z,105
2022-12-06T22:06:11.997Z,121
2022-12-06T22:08:43.822Z,122
2022-12-06T22:11:15.313Z,115
2022-12-06T22:13:46.739Z,112
2022-12-06T22:16:18.201Z,189
2022-12-06T22:18:51.759Z,132
2022-12-06T22:21:23.837Z,129
2022-12-06T22:23:55.107Z,127
2022-12-06T22:26:27.104Z,121
2022-12-06T22:28:59.030Z,126
2022-12-06T22:31:31.167Z,132
2022-12-06T22:34:02.505Z,136
2022-12-06T22:36:34.059Z,143
2022-12-06T22:39:05.138Z,142
2022-12-06T22:41:36.317Z,129
2022-12-06T22:44:07.486Z,138
2022-12-06T22:46:38.655Z,131
2022-12-06T22:49:13.805Z,130
2022-12-06T22:51:41.763Z,121
2022-12-06T22:54:13.986Z,119
2022-12-06T22:56:45.122Z,108
2022-12-06T22:59:16.541Z,115
2022-12-06T23:01:48.107Z,105
2022-12-06T23:04:19.143Z,114
2022-12-06T23:06:50.958Z,109
2022-12-06T23:09:22.493Z,96
2022-12-06T23:11:53.649Z,95
2022-12-06T23:14:24.903Z,92
2022-12-06T23:16:56.734Z,86
2022-12-06T23:19:27.474Z,84
2022-12-06T23:21:59.115Z,92
2022-12-06T23:24:30.258Z,85
2022-12-06T23:27:01.050Z,84
2022-12-06T23:29:32.967Z,77
2022-12-06T23:32:03.833Z,80
2022-12-06T23:34:34.395Z,79
2022-12-06T23:37:07.887Z,77
2022-12-06T23:39:38.683Z,98
2022-12-06T23:42:09.858Z,98
2022-12-06T23:44:40.701Z,94
2022-12-06T23:47:11.747Z,100
2022-12-06T23:49:43.687Z,99
2022-12-06T23:52:14.266Z,89
2022-12-06T23:54:44.900Z,95
2022-12-06T23:57:15.767Z,95
2022-12-06T23:59:44.746Z,83
